Time;durP1;ratioP1;P1;durP2;ratioP2;P2;SDS_P1;SDS_P2;PMS_P1;PMS_P2;Temp;Humidity;BMP_temperature;BMP_pressure;BME280_temperature;BME280_humidity;BME280_pressure;Samples;Min_cycle;Max_cycle;Signal;HPM_P1;HPM_P2
2021/09/25 00:01:17;;;;;;;12.63;9.35;;;14.30;73.00;;;;;;5071114;28;20047;-91
2021/09/25 00:03:43;;;;;;;15.02;10.10;;;14.30;73.10;;;;;;5086447;28;20032;-91
2021/09/25 00:06:15;;;;;;;16.65;10.65;;;14.30;73.00;;;;;;5053301;28;20673;-90
2021/09/25 00:08:43;;;;;;;14.20;10.50;;;14.30;73.10;;;;;;5088561;28;20024;-92
2021/09/25 00:11:09;;;;;;;15.88;10.32;;;14.30;73.10;;;;;;5065672;28;20028;-91
2021/09/25 00:13:35;;;;;;;14.18;10.27;;;14.30;73.10;;;;;;5075160;28;20035;-89
2021/09/25 00:16:01;;;;;;;16.25;10.55;;;14.30;73.10;;;;;;5074660;28;20040;-92
2021/09/25 00:18:27;;;;;;;14.30;10.38;;;14.30;73.20;;;;;;5070196;28;20494;-91
2021/09/25 00:20:53;;;;;;;16.75;11.25;;;14.30;73.30;;;;;;5048400;28;20085;-91
2021/09/25 00:23:19;;;;;;;14.32;10.52;;;14.30;73.30;;;;;;5087683;28;20492;-90
2021/09/25 00:25:45;;;;;;;14.30;10.05;;;14.30;73.40;;;;;;5070316;28;20077;-90
2021/09/25 00:28:11;;;;;;;15.30;10.90;;;14.20;73.30;;;;;;5053796;28;20051;-91
2021/09/25 00:30:37;;;;;;;13.15;9.75;;;14.30;73.30;;;;;;5052800;28;20039;-91
2021/09/25 00:33:02;;;;;;;13.75;10.35;;;14.20;73.30;;;;;;5107684;28;20028;-91
2021/09/25 00:35:28;;;;;;;13.82;10.23;;;14.20;73.30;;;;;;5101192;28;20175;-89
2021/09/25 00:37:54;;;;;;;13.85;10.02;;;14.20;73.30;;;;;;5114391;28;20032;-88
2021/09/25 00:40:20;;;;;;;14.18;9.48;;;14.20;73.40;;;;;;5114204;28;20044;-88
2021/09/25 00:42:46;;;;;;;14.63;10.30;;;14.20;73.40;;;;;;5101001;28;20043;-91
2021/09/25 00:45:13;;;;;;;17.95;10.32;;;14.20;73.40;;;;;;5072886;28;20063;-90
2021/09/25 00:47:39;;;;;;;13.65;10.65;;;14.30;73.40;;;;;;5071294;28;20038;-91
2021/09/25 00:50:07;;;;;;;17.77;11.10;;;14.20;73.30;;;;;;5065602;28;20452;-91
2021/09/25 00:52:32;;;;;;;16.10;10.27;;;14.20;74.00;;;;;;5054024;28;20066;-90
2021/09/25 00:54:59;;;;;;;15.50;10.65;;;14.20;73.40;;;;;;5078389;28;20259;-91
2021/09/25 00:57:25;;;;;;;18.85;10.55;;;14.20;73.50;;;;;;5066473;28;20038;-90
2021/09/25 00:59:51;;;;;;;15.43;10.98;;;14.20;73.60;;;;;;5069523;28;20063;-92
2021/09/25 01:02:17;;;;;;;15.45;10.55;;;14.20;73.70;;;;;;5087956;28;20022;-90
2021/09/25 01:04:45;;;;;;;14.50;10.45;;;14.20;73.70;;;;;;5094367;28;20087;-91
2021/09/25 01:07:11;;;;;;;15.38;10.70;;;14.20;73.80;;;;;;5073737;28;20512;-91
2021/09/25 01:09:37;;;;;;;16.20;10.82;;;14.20;73.80;;;;;;5062795;28;20095;-88
2021/09/25 01:12:04;;;;;;;14.10;10.35;;;14.20;73.80;;;;;;5096565;28;20473;-89
2021/09/25 01:14:31;;;;;;;16.25;10.98;;;14.20;73.80;;;;;;5077597;28;20052;-90
2021/09/25 01:17:06;;;;;;;17.52;10.43;;;14.20;73.80;;;;;;5096948;28;20036;-88
2021/09/25 01:19:33;;;;;;;15.20;10.90;;;14.20;73.80;;;;;;5094890;28;20058;-88
2021/09/25 01:21:59;;;;;;;18.13;10.68;;;14.20;73.80;;;;;;5061791;28;20061;-89
2021/09/25 01:24:24;;;;;;;14.88;10.70;;;14.20;73.80;;;;;;5094131;28;20028;-89
2021/09/25 01:26:50;;;;;;;13.48;10.25;;;14.20;73.80;;;;;;5092183;28;20032;-90
2021/09/25 01:29:16;;;;;;;13.30;10.30;;;14.20;73.80;;;;;;5092202;28;20086;-87
2021/09/25 01:31:42;;;;;;;13.90;10.55;;;14.20;73.80;;;;;;5113006;28;20036;-88
2021/09/25 01:34:08;;;;;;;14.27;10.55;;;14.20;73.90;;;;;;5080351;28;20040;-88
2021/09/25 01:36:35;;;;;;;16.17;11.38;;;14.10;73.90;;;;;;5082085;28;20183;-90
2021/09/25 01:39:00;;;;;;;13.60;10.27;;;14.10;74.00;;;;;;5059592;28;20043;-89
2021/09/25 01:41:26;;;;;;;17.60;10.65;;;14.10;74.10;;;;;;5101671;28;20027;-93
2021/09/25 01:43:52;;;;;;;17.08;11.05;;;14.10;74.20;;;;;;5105900;28;20032;-92
2021/09/25 01:46:18;;;;;;;15.98;11.02;;;14.10;74.30;;;;;;5085515;28;20062;-91
2021/09/25 01:48:45;;;;;;;16.80;11.35;;;14.10;74.20;;;;;;5088494;28;20039;-90
2021/09/25 01:51:12;;;;;;;16.08;11.10;;;14.10;74.20;;;;;;5082714;28;20024;-93
2021/09/25 01:53:40;;;;;;;14.70;10.80;;;14.10;74.20;;;;;;5105743;28;20056;-91
2021/09/25 01:56:12;;;;;;;17.23;11.52;;;14.10;74.20;;;;;;5084349;28;20054;-92
2021/09/25 01:58:39;;;;;;;16.23;11.35;;;14.10;74.90;;;;;;5083811;28;20044;-92
2021/09/25 02:01:06;;;;;;;16.20;10.57;;;14.20;74.30;;;;;;5081672;28;20032;-90
2021/09/25 02:03:35;;;;;;;19.33;10.40;;;14.10;74.20;;;;;;5089698;28;20032;-90
2021/09/25 02:06:03;;;;;;;17.02;10.75;;;14.20;74.20;;;;;;5089511;28;20032;-85
2021/09/25 02:08:29;;;;;;;15.32;10.10;;;14.10;74.10;;;;;;5079962;28;20025;-88
2021/09/25 02:10:56;;;;;;;16.05;10.45;;;14.10;74.20;;;;;;5097383;28;20040;-87
2021/09/25 02:13:22;;;;;;;16.88;11.27;;;14.10;74.20;;;;;;5092726;28;20030;-86
2021/09/25 02:15:48;;;;;;;14.73;10.65;;;14.10;74.20;;;;;;5097316;28;20056;-86
2021/09/25 02:18:14;;;;;;;16.17;11.20;;;14.10;74.20;;;;;;5239086;22;20037;-87
2021/09/25 02:20:40;;;;;;;15.38;10.40;;;14.10;74.20;;;;;;5026457;28;20046;-84
2021/09/25 02:23:06;;;;;;;14.57;11.13;;;14.10;74.30;;;;;;5007538;28;20041;-90
2021/09/25 02:25:32;;;;;;;15.90;10.82;;;14.10;74.20;;;;;;5009048;28;20059;-87
2021/09/25 02:27:58;;;;;;;15.20;10.00;;;14.10;74.20;;;;;;5026567;28;20026;-84
2021/09/25 02:30:24;;;;;;;14.75;10.27;;;14.10;74.20;;;;;;5074757;22;20119;-86
2021/09/25 02:32:51;;;;;;;17.05;10.70;;;14.10;74.20;;;;;;5025442;28;20021;-87
2021/09/25 02:40:35;;;;;;;14.93;9.55;;;14.10;74.30;;;;;;5147954;22;20044;-90
2021/09/25 02:43:00;;;;;;;13.70;10.52;;;14.10;74.20;;;;;;5071267;28;20032;-94
2021/09/25 02:45:26;;;;;;;12.88;9.65;;;14.10;74.20;;;;;;5048543;28;20048;-92
2021/09/25 02:47:52;;;;;;;14.18;9.07;;;14.10;74.20;;;;;;5080921;28;20032;-91
2021/09/25 02:50:19;;;;;;;13.65;9.90;;;14.10;74.20;;;;;;5082539;28;20032;-87
2021/09/25 02:52:46;;;;;;;14.93;9.93;;;14.10;74.20;;;;;;5086576;28;20037;-89
2021/09/25 02:55:13;;;;;;;15.02;10.80;;;14.10;74.20;;;;;;5068228;28;20560;-95
2021/09/25 02:57:40;;;;;;;12.73;9.55;;;14.10;74.30;;;;;;5064079;28;20033;-91
2021/09/25 03:00:09;;;;;;;13.07;10.07;;;14.00;74.30;;;;;;5043535;28;20112;-92
2021/09/25 03:02:35;;;;;;;14.05;10.23;;;14.00;74.40;;;;;;5057188;28;20024;-95
2021/09/25 03:05:01;;;;;;;14.07;10.15;;;14.00;74.30;;;;;;5062844;28;20493;-92
2021/09/25 03:07:27;;;;;;;14.75;9.60;;;14.00;74.40;;;;;;5061880;28;20029;-96
2021/09/25 03:09:53;;;;;;;15.88;10.23;;;14.10;74.40;;;;;;5063345;28;20059;-92
2021/09/25 03:12:19;;;;;;;14.20;9.73;;;14.00;74.30;;;;;;5066780;28;20037;-92
2021/09/25 03:14:45;;;;;;;14.07;9.38;;;14.10;74.40;;;;;;5079507;28;20032;-94
2021/09/25 03:17:11;;;;;;;13.20;9.10;;;14.00;74.20;;;;;;5060180;28;20039;-93
2021/09/25 03:19:37;;;;;;;13.50;9.23;;;14.00;74.30;;;;;;5086684;28;20044;-85
2021/09/25 03:22:03;;;;;;;11.77;9.07;;;14.00;74.30;;;;;;5090231;28;20092;-89
2021/09/25 03:24:29;;;;;;;14.60;9.73;;;14.00;74.20;;;;;;5090157;28;20075;-93
2021/09/25 03:26:55;;;;;;;15.80;10.50;;;14.00;74.20;;;;;;5076070;28;20036;-88
2021/09/25 03:29:21;;;;;;;14.15;9.75;;;14.00;74.20;;;;;;5069459;28;20021;-87
2021/09/25 03:31:49;;;;;;;16.63;10.50;;;14.00;74.20;;;;;;5083128;28;20047;-96
2021/09/25 03:34:16;;;;;;;13.80;9.20;;;14.10;74.20;;;;;;5053037;28;20027;-94
2021/09/25 03:36:42;;;;;;;13.18;9.82;;;14.00;74.20;;;;;;5072007;28;20032;-93
2021/09/25 03:39:09;;;;;;;13.48;9.65;;;14.10;74.20;;;;;;5057675;28;20053;-95
2021/09/25 03:41:35;;;;;;;15.18;10.30;;;14.10;74.30;;;;;;5069610;28;20541;-95
2021/09/25 03:44:02;;;;;;;13.98;9.38;;;14.10;74.30;;;;;;5071495;28;20062;-94
2021/09/25 03:46:28;;;;;;;13.85;9.32;;;14.10;74.30;;;;;;5075795;28;20069;-95
2021/09/25 03:48:54;;;;;;;14.27;9.85;;;14.00;74.20;;;;;;5072913;28;20491;-94
2021/09/25 03:51:20;;;;;;;16.90;9.77;;;14.10;74.30;;;;;;5035722;28;20060;-96
2021/09/25 03:53:46;;;;;;;18.80;10.32;;;14.10;74.30;;;;;;5056811;28;20040;-92
2021/09/25 03:56:12;;;;;;;13.13;10.02;;;14.10;74.30;;;;;;5067882;28;20411;-96
2021/09/25 03:58:40;;;;;;;12.65;9.07;;;14.00;74.20;;;;;;5066269;28;20048;-87
2021/09/25 04:01:07;;;;;;;12.15;9.32;;;14.00;74.30;;;;;;5063801;28;20487;-94
2021/09/25 04:03:33;;;;;;;15.20;9.45;;;14.00;74.30;;;;;;5075609;28;20056;-94
2021/09/25 04:06:01;;;;;;;15.35;9.88;;;14.00;74.30;;;;;;5055751;28;20060;-90
2021/09/25 04:08:31;;;;;;;14.95;9.60;;;14.00;74.30;;;;;;5051632;28;20036;-92
2021/09/25 04:10:57;;;;;;;12.98;9.05;;;14.10;74.40;;;;;;5073337;28;20126;-89
2021/09/25 04:13:24;;;;;;;14.00;9.52;;;14.10;74.30;;;;;;5144849;23;20040;-86
2021/09/25 04:15:49;;;;;;;14.02;9.05;;;14.10;74.40;;;;;;5098423;28;20051;-85
2021/09/25 04:18:15;;;;;;;13.93;9.43;;;14.10;74.40;;;;;;5112469;28;20042;-90
2021/09/25 04:20:43;;;;;;;14.38;9.30;;;14.00;74.40;;;;;;5093732;28;20054;-87
2021/09/25 04:23:09;;;;;;;13.93;9.70;;;14.00;74.40;;;;;;5106539;28;20089;-93
2021/09/25 04:25:35;;;;;;;17.17;10.52;;;14.00;74.50;;;;;;5099520;28;20035;-91
2021/09/25 04:28:07;;;;;;;13.02;9.45;;;14.00;74.40;;;;;;5100571;28;20035;-92
2021/09/25 04:30:38;;;;;;;13.82;9.52;;;14.10;74.50;;;;;;5106135;28;20028;-93
2021/09/25 04:33:06;;;;;;;13.50;9.13;;;14.00;74.40;;;;;;5119979;28;20088;-94
2021/09/25 04:35:32;;;;;;;13.18;9.02;;;14.00;74.40;;;;;;5094515;28;20070;-92
2021/09/25 04:37:59;;;;;;;13.32;8.93;;;14.00;74.50;;;;;;5081561;28;20040;-88
2021/09/25 04:40:29;;;;;;;12.38;8.70;;;14.10;74.50;;;;;;5097777;28;20097;-92
2021/09/25 04:42:57;;;;;;;11.90;8.90;;;14.00;74.50;;;;;;5120845;28;20034;-94
2021/09/25 04:45:23;;;;;;;12.05;8.48;;;14.10;74.60;;;;;;5098129;28;20032;-94
2021/09/25 04:47:50;;;;;;;16.45;9.18;;;14.00;74.60;;;;;;5103074;28;20034;-95
2021/09/25 04:50:17;;;;;;;12.85;8.63;;;14.00;74.60;;;;;;5118452;28;20214;-94
2021/09/25 04:52:43;;;;;;;11.35;8.38;;;14.00;74.50;;;;;;5121633;28;20046;-88
2021/09/25 04:55:10;;;;;;;12.40;8.80;;;14.00;74.50;;;;;;5121872;28;20043;-96
2021/09/25 04:57:36;;;;;;;13.25;8.35;;;14.00;74.40;;;;;;5123414;28;20214;-96
2021/09/25 05:00:06;;;;;;;10.77;7.78;;;14.00;74.40;;;;;;5118723;28;20015;-93
2021/09/25 05:02:33;;;;;;;12.93;8.63;;;14.00;74.40;;;;;;5099139;28;20037;-96
2021/09/25 05:04:59;;;;;;;9.98;7.90;;;14.00;74.40;;;;;;5105183;28;20027;-88
2021/09/25 05:07:25;;;;;;;13.75;7.95;;;14.10;74.60;;;;;;5097367;28;20059;-85
2021/09/25 05:09:51;;;;;;;13.88;8.55;;;14.00;74.50;;;;;;5127696;28;20012;-89
2021/09/25 05:12:17;;;;;;;12.65;9.27;;;14.00;74.50;;;;;;5116337;28;20023;-89
2021/09/25 05:14:42;;;;;;;11.55;8.10;;;14.10;74.60;;;;;;5101428;28;20058;-93
2021/09/25 05:17:09;;;;;;;12.23;8.13;;;14.10;74.50;;;;;;5118371;28;20024;-94
2021/09/25 05:19:35;;;;;;;13.02;7.78;;;14.10;74.50;;;;;;5111225;28;20039;-94
2021/09/25 05:22:01;;;;;;;10.90;7.75;;;14.10;74.60;;;;;;5108950;28;20031;-90
2021/09/25 05:24:27;;;;;;;10.50;7.78;;;14.10;74.50;;;;;;5103428;28;20034;-94
2021/09/25 05:26:55;;;;;;;14.75;7.68;;;14.10;74.60;;;;;;5107623;28;20040;-92
2021/09/25 05:29:23;;;;;;;12.00;7.90;;;14.10;74.50;;;;;;5107468;28;20088;-89
2021/09/25 05:31:49;;;;;;;13.35;8.00;;;14.00;74.60;;;;;;5106815;28;20028;-96
2021/09/25 05:34:15;;;;;;;9.82;7.45;;;14.00;74.60;;;;;;5091271;28;20031;-96
2021/09/25 05:36:41;;;;;;;12.20;7.50;;;14.10;74.70;;;;;;5098805;28;20032;-93
2021/09/25 05:39:07;;;;;;;12.15;7.10;;;14.10;74.70;;;;;;5109462;28;20056;-95
2021/09/25 05:41:33;;;;;;;10.13;7.43;;;14.10;74.80;;;;;;5090234;28;20112;-93
2021/09/25 05:43:59;;;;;;;11.10;7.20;;;14.00;74.70;;;;;;5103643;28;20036;-92
2021/09/25 05:46:25;;;;;;;12.15;7.38;;;14.10;74.70;;;;;;5084639;28;20039;-92
2021/09/25 05:48:52;;;;;;;9.75;7.25;;;14.10;74.70;;;;;;5085619;28;20028;-92
2021/09/25 05:51:19;;;;;;;9.02;7.05;;;14.10;74.70;;;;;;5070831;28;20107;-91
2021/09/25 05:53:46;;;;;;;11.00;7.82;;;14.10;74.70;;;;;;5089085;28;20031;-93
2021/09/25 05:56:12;;;;;;;11.13;7.28;;;14.10;74.60;;;;;;5068442;28;20039;-96
2021/09/25 05:58:38;;;;;;;12.55;7.35;;;14.10;74.70;;;;;;5080026;28;20051;-92
2021/09/25 06:01:04;;;;;;;11.77;7.78;;;14.10;74.80;;;;;;5108954;28;20093;-86
2021/09/25 06:03:30;;;;;;;10.43;7.28;;;14.10;74.80;;;;;;5114454;28;20023;-88
2021/09/25 06:05:56;;;;;;;12.30;7.85;;;14.10;74.80;;;;;;5099240;28;20092;-90
2021/09/25 06:08:22;;;;;;;10.93;7.20;;;14.10;74.80;;;;;;5116642;28;20433;-93
2021/09/25 06:10:48;;;;;;;9.30;7.40;;;14.10;74.70;;;;;;5107542;28;20032;-93
2021/09/25 06:13:14;;;;;;;13.30;7.95;;;14.10;74.60;;;;;;5087696;28;20416;-90
2021/09/25 06:15:40;;;;;;;11.07;7.88;;;14.10;74.60;;;;;;5073116;28;20039;-91
2021/09/25 06:18:06;;;;;;;10.35;7.90;;;14.10;74.60;;;;;;5088087;28;20110;-93
2021/09/25 06:20:32;;;;;;;12.68;7.60;;;14.10;74.60;;;;;;5076047;28;20089;-93
2021/09/25 06:25:39;;;;;;;11.55;7.78;;;14.10;74.60;;;;;;5142590;22;20040;-94
2021/09/25 06:28:05;;;;;;;10.73;7.10;;;14.10;74.60;;;;;;5076972;28;20032;-93
2021/09/25 06:30:32;;;;;;;15.35;8.18;;;14.20;74.60;;;;;;5086108;28;20034;-94
2021/09/25 06:32:59;;;;;;;10.00;7.10;;;14.20;74.50;;;;;;5087147;28;20591;-93
2021/09/25 06:35:25;;;;;;;11.55;7.95;;;14.20;74.50;;;;;;5068607;28;20029;-94
2021/09/25 06:37:51;;;;;;;11.80;7.45;;;14.20;74.50;;;;;;5086792;28;20061;-93
2021/09/25 06:40:17;;;;;;;10.48;7.88;;;14.20;74.50;;;;;;5056982;28;20032;-91
2021/09/25 06:42:43;;;;;;;12.35;7.53;;;14.20;74.50;;;;;;5070460;28;20031;-92
2021/09/25 06:45:10;;;;;;;13.80;8.25;;;14.20;74.50;;;;;;5092664;23;20213;-92
2021/09/25 06:47:36;;;;;;;12.10;8.15;;;14.20;74.60;;;;;;5052777;28;20039;-92
2021/09/25 06:50:07;;;;;;;15.38;8.85;;;14.20;75.20;;;;;;5055939;28;20135;-93
2021/09/25 06:52:33;;;;;;;14.52;8.68;;;14.30;75.40;;;;;;5022545;28;20616;-93
2021/09/25 06:55:00;;;;;;;12.00;9.10;;;14.20;75.10;;;;;;5025271;28;20030;-94
2021/09/25 06:57:29;;;;;;;15.10;9.23;;;14.30;75.10;;;;;;5060004;28;20033;-89
2021/09/25 06:59:55;;;;;;;16.17;9.50;;;14.30;75.10;;;;;;5070370;28;20167;-91
2021/09/25 07:02:21;;;;;;;13.25;9.52;;;14.30;75.00;;;;;;5064766;28;20056;-92
2021/09/25 07:04:47;;;;;;;12.93;8.93;;;14.20;75.00;;;;;;5034890;28;20536;-93
2021/09/25 07:07:13;;;;;;;14.10;9.80;;;14.20;75.30;;;;;;5047020;28;20033;-88
2021/09/25 07:09:41;;;;;;;12.77;9.45;;;14.20;75.90;;;;;;5043824;28;20029;-90
2021/09/25 07:12:10;;;;;;;12.30;8.88;;;14.30;76.50;;;;;;5009902;28;20029;-89
2021/09/25 07:14:36;;;;;;;12.13;9.05;;;14.30;76.50;;;;;;5031163;28;20029;-89
2021/09/25 07:17:03;;;;;;;13.25;8.88;;;14.30;76.50;;;;;;5044639;28;20029;-90
2021/09/25 07:19:29;;;;;;;14.18;9.82;;;14.30;76.60;;;;;;5045713;28;20024;-88
2021/09/25 07:21:55;;;;;;;12.88;8.45;;;14.30;76.70;;;;;;5050558;28;20530;-88
2021/09/25 07:24:21;;;;;;;12.40;9.38;;;14.30;76.70;;;;;;5032505;28;20396;-89
2021/09/25 07:26:47;;;;;;;12.07;9.70;;;14.30;76.90;;;;;;5049176;28;20021;-89
2021/09/25 07:29:13;;;;;;;15.38;10.05;;;14.30;76.80;;;;;;5028585;28;20124;-90
2021/09/25 07:31:39;;;;;;;16.10;9.27;;;14.40;76.80;;;;;;5019722;28;20079;-90
2021/09/25 07:34:05;;;;;;;13.55;9.10;;;14.40;76.80;;;;;;5034092;28;20072;-90
2021/09/25 07:36:31;;;;;;;13.23;9.52;;;14.40;76.80;;;;;;5034834;28;20449;-90
2021/09/25 07:38:57;;;;;;;12.98;8.90;;;14.40;76.80;;;;;;5035190;28;20029;-90
2021/09/25 07:41:23;;;;;;;13.80;9.65;;;14.40;77.20;;;;;;5035481;28;20028;-90
2021/09/25 07:43:51;;;;;;;14.25;10.23;;;14.40;76.80;;;;;;5031534;28;20778;-90
2021/09/25 07:46:18;;;;;;;18.25;10.35;;;14.40;76.30;;;;;;5034577;28;20053;-90
2021/09/25 07:48:44;;;;;;;12.43;10.10;;;14.40;76.00;;;;;;5051866;28;20514;-89
2021/09/25 07:51:10;;;;;;;14.52;10.88;;;14.40;75.80;;;;;;5052207;28;20134;-88
2021/09/25 07:53:36;;;;;;;14.65;11.18;;;14.40;75.70;;;;;;5037846;28;20491;-89
2021/09/25 07:56:02;;;;;;;15.90;10.68;;;14.40;75.70;;;;;;5067585;28;20093;-86
2021/09/25 07:58:28;;;;;;;15.40;11.25;;;14.40;75.80;;;;;;5030545;28;20131;-89
2021/09/25 08:00:54;;;;;;;16.65;11.70;;;14.40;75.80;;;;;;5020986;28;20076;-90
2021/09/25 08:03:20;;;;;;;19.75;11.68;;;14.40;75.80;;;;;;5046304;28;20035;-91
2021/09/25 08:05:46;;;;;;;16.67;11.82;;;14.40;75.80;;;;;;5028826;28;20030;-90
2021/09/25 08:08:12;;;;;;;15.98;11.10;;;14.40;75.90;;;;;;5041899;28;20020;-91
2021/09/25 08:10:38;;;;;;;14.65;11.60;;;14.40;75.90;;;;;;5045890;28;20040;-88
2021/09/25 08:13:04;;;;;;;17.00;11.63;;;14.40;75.90;;;;;;5042237;28;20455;-89
2021/09/25 08:15:30;;;;;;;14.57;11.40;;;14.40;76.00;;;;;;5045083;28;20115;-87
2021/09/25 08:17:56;;;;;;;16.63;12.05;;;14.40;75.80;;;;;;5036132;28;20060;-88
2021/09/25 08:20:23;;;;;;;13.45;11.68;;;14.40;75.70;;;;;;5012424;28;20468;-87
2021/09/25 08:22:50;;;;;;;13.95;10.80;;;14.30;75.80;;;;;;5027131;28;20059;-88
2021/09/25 08:25:17;;;;;;;17.17;10.35;;;14.40;75.90;;;;;;5034607;28;20033;-89
2021/09/25 08:27:44;;;;;;;17.20;11.07;;;14.40;76.80;;;;;;5037322;28;20052;-88
2021/09/25 08:30:11;;;;;;;15.82;12.30;;;14.40;76.80;;;;;;5045739;28;20103;-87
2021/09/25 08:32:38;;;;;;;14.60;11.70;;;14.40;76.60;;;;;;5017603;28;20025;-85
2021/09/25 08:35:07;;;;;;;16.38;11.50;;;14.40;76.30;;;;;;5045744;28;20033;-86
2021/09/25 08:37:34;;;;;;;15.32;12.18;;;14.40;76.10;;;;;;5033604;28;20033;-87
2021/09/25 08:40:01;;;;;;;14.20;11.35;;;14.40;75.90;;;;;;5046503;28;20025;-90
2021/09/25 08:42:27;;;;;;;16.42;11.65;;;14.40;75.80;;;;;;5016293;28;20045;-85
2021/09/25 08:44:53;;;;;;;16.42;12.82;;;14.40;76.60;;;;;;5045733;28;20041;-88
2021/09/25 08:47:21;;;;;;;17.20;11.07;;;14.40;76.00;;;;;;5048833;28;20029;-88
2021/09/25 08:49:47;;;;;;;14.02;11.40;;;14.30;75.80;;;;;;5027977;28;20025;-88
2021/09/25 08:52:13;;;;;;;15.90;12.23;;;14.30;75.70;;;;;;5023900;28;20033;-88
2021/09/25 08:54:40;;;;;;;15.52;12.05;;;14.30;75.60;;;;;;5034053;28;20397;-87
2021/09/25 08:57:06;;;;;;;14.15;11.90;;;14.30;75.70;;;;;;5046873;28;20064;-87
2021/09/25 08:59:32;;;;;;;13.05;10.43;;;14.30;75.70;;;;;;5028408;28;20037;-87
2021/09/25 09:02:15;;;;;;;13.00;10.38;;;14.40;75.70;;;;;;5046241;28;20758;-87
2021/09/25 09:04:52;;;;;;;14.45;10.40;;;14.30;75.70;;;;;;5045068;28;20693;-88
2021/09/25 09:07:22;;;;;;;16.00;10.80;;;14.30;75.70;;;;;;5045437;28;20128;-90
2021/09/25 09:09:48;;;;;;;13.68;10.68;;;14.30;75.90;;;;;;5027364;28;20025;-87
2021/09/25 09:12:21;;;;;;;15.40;10.45;;;14.30;76.20;;;;;;5044985;28;20032;-88
2021/09/25 09:14:49;;;;;;;15.38;10.75;;;14.30;77.00;;;;;;5045969;28;20035;-91
2021/09/25 09:17:16;;;;;;;14.75;10.05;;;14.30;76.70;;;;;;5045259;28;20043;-87
2021/09/25 09:19:43;;;;;;;14.57;10.98;;;14.30;77.60;;;;;;5035047;28;20127;-86
2021/09/25 09:22:16;;;;;;;20.67;10.50;;;14.30;78.40;;;;;;5025492;28;20120;-86
2021/09/25 09:24:47;;;;;;;16.60;10.40;;;14.30;78.90;;;;;;5024761;28;20115;-87
2021/09/25 09:27:17;;;;;;;17.02;10.77;;;14.30;79.50;;;;;;5043194;28;20025;-87
2021/09/25 09:29:44;;;;;;;14.40;10.98;;;14.40;79.90;;;;;;5045460;28;20060;-87
2021/09/25 09:32:11;;;;;;;13.93;10.40;;;14.40;80.40;;;;;;5033320;28;20043;-88
2021/09/25 09:34:43;;;;;;;18.25;10.43;;;14.40;80.40;;;;;;5045232;28;20032;-88
2021/09/25 09:37:18;;;;;;;13.48;9.93;;;14.50;80.70;;;;;;5029490;28;20039;-89
2021/09/25 09:39:57;;;;;;;13.45;10.35;;;14.50;80.80;;;;;;5031766;28;20025;-89
2021/09/25 09:42:23;;;;;;;13.63;9.43;;;14.50;80.80;;;;;;5038761;28;20041;-88
2021/09/25 09:44:52;;;;;;;15.25;9.63;;;14.50;80.80;;;;;;5064096;28;20569;-88
2021/09/25 09:47:21;;;;;;;13.38;9.55;;;14.60;80.80;;;;;;5065345;28;20473;-88
2021/09/25 09:49:55;;;;;;;14.07;9.93;;;14.60;80.80;;;;;;5062632;28;20029;-89
2021/09/25 09:52:21;;;;;;;11.93;8.68;;;14.60;80.80;;;;;;5024755;28;20037;-89
2021/09/25 09:54:49;;;;;;;13.55;9.20;;;14.60;80.60;;;;;;5026979;28;20136;-89
2021/09/25 09:57:20;;;;;;;12.70;9.43;;;14.60;80.60;;;;;;5026666;28;20037;-88
2021/09/25 09:59:48;;;;;;;12.82;9.30;;;14.60;80.60;;;;;;5044827;28;20044;-89
2021/09/25 10:02:14;;;;;;;12.75;8.85;;;14.60;81.20;;;;;;5048436;28;20090;-89
2021/09/25 10:04:40;;;;;;;14.43;9.23;;;14.60;80.60;;;;;;5048870;28;20116;-88
2021/09/25 10:07:07;;;;;;;12.13;8.20;;;14.70;80.40;;;;;;5046758;28;20537;-87
2021/09/25 10:09:36;;;;;;;10.50;8.20;;;14.70;80.30;;;;;;5048539;28;20028;-89
2021/09/25 10:12:08;;;;;;;12.32;7.90;;;14.60;80.40;;;;;;5046350;28;20029;-89
2021/09/25 10:14:38;;;;;;;13.68;8.55;;;14.70;80.30;;;;;;5047424;28;20478;-88
2021/09/25 10:17:07;;;;;;;10.25;8.20;;;14.70;80.20;;;;;;5050043;28;20032;-88
2021/09/25 10:19:35;;;;;;;10.25;8.73;;;14.70;80.10;;;;;;5047781;28;20044;-89
2021/09/25 10:22:12;;;;;;;9.63;7.72;;;14.70;80.10;;;;;;5053373;28;20033;-89
2021/09/25 10:24:45;;;;;;;10.15;8.05;;;14.70;80.10;;;;;;5049059;28;20034;-88
2021/09/25 10:27:11;;;;;;;10.90;8.35;;;14.70;80.10;;;;;;5031561;28;20043;-90
2021/09/25 10:29:49;;;;;;;10.25;8.27;;;14.70;80.00;;;;;;5014384;28;20418;-88
2021/09/25 10:32:23;;;;;;;12.02;8.57;;;14.70;80.30;;;;;;5013015;28;20043;-89
2021/09/25 10:35:12;;;;;;;11.98;8.82;;;14.70;80.50;;;;;;5029971;28;20037;-88
2021/09/25 10:37:42;;;;;;;9.45;8.02;;;14.70;80.70;;;;;;5047578;28;20039;-86
2021/09/25 10:40:31;;;;;;;9.40;7.80;;;14.70;80.60;;;;;;5039220;28;20033;-86
2021/09/25 10:43:01;;;;;;;10.73;7.65;;;14.70;80.80;;;;;;5073713;28;20045;-88
2021/09/25 10:45:37;;;;;;;14.05;8.98;;;14.80;81.00;;;;;;5059672;28;20520;-89
2021/09/25 10:48:16;;;;;;;11.68;8.85;;;14.70;81.20;;;;;;5043254;28;20037;-90
2021/09/25 10:50:52;;;;;;;10.90;8.82;;;14.80;81.30;;;;;;5014032;28;20041;-89
2021/09/25 10:53:55;;;;;;;15.23;9.13;;;14.80;81.20;;;;;;5048353;28;20083;-90
2021/09/25 10:56:49;;;;;;;14.15;9.48;;;14.80;81.20;;;;;;5037291;28;20064;-89
2021/09/25 10:59:15;;;;;;;12.27;9.32;;;14.80;81.30;;;;;;5014239;28;20542;-89
2021/09/25 11:01:44;;;;;;;12.60;9.38;;;14.80;81.30;;;;;;5041215;28;20036;-89
2021/09/25 11:04:21;;;;;;;13.30;9.55;;;14.80;81.40;;;;;;5042059;28;20037;-92
2021/09/25 11:06:57;;;;;;;11.73;9.40;;;14.80;81.50;;;;;;5053460;28;20052;-90
2021/09/25 11:09:41;;;;;;;11.68;8.55;;;14.80;81.60;;;;;;5051725;28;20499;-89
2021/09/25 11:12:26;;;;;;;10.77;8.65;;;14.80;81.70;;;;;;5052109;28;20044;-90
2021/09/25 11:14:56;;;;;;;11.40;9.80;;;14.90;81.80;;;;;;5052495;28;20504;-89
2021/09/25 11:17:24;;;;;;;10.50;9.40;;;14.90;81.80;;;;;;5054455;28;20043;-89
2021/09/25 11:20:00;;;;;;;12.32;7.80;;;14.90;81.80;;;;;;5032502;28;20037;-87
2021/09/25 11:22:30;;;;;;;11.70;8.82;;;14.90;81.80;;;;;;5043553;28;20044;-89
2021/09/25 11:24:59;;;;;;;10.50;8.35;;;14.90;81.60;;;;;;5043036;28;20032;-88
2021/09/25 11:27:31;;;;;;;13.43;8.75;;;14.90;81.30;;;;;;5027404;28;20025;-89
2021/09/25 11:30:06;;;;;;;13.45;8.25;;;14.90;81.00;;;;;;5025729;28;20052;-88
2021/09/25 11:32:45;;;;;;;;;;;14.90;80.60;;;;;;5026490;28;20037;-87
2021/09/25 11:35:18;;;;;;;10.88;8.25;;;14.80;80.60;;;;;;5048138;28;19913;-87
2021/09/25 11:37:50;;;;;;;9.23;7.63;;;14.80;80.50;;;;;;5060292;28;20037;-88
2021/09/25 11:40:17;;;;;;;10.02;7.10;;;14.80;80.40;;;;;;5063424;28;20008;-88
2021/09/25 11:42:43;;;;;;;11.18;7.80;;;14.80;80.40;;;;;;5046359;28;20033;-88
2021/09/25 11:45:11;;;;;;;10.30;7.53;;;14.80;80.10;;;;;;5038710;28;20041;-88
2021/09/25 11:47:47;;;;;;;10.27;7.85;;;14.80;80.10;;;;;;5033593;28;20505;-88
2021/09/25 11:50:22;;;;;;;8.55;7.05;;;14.80;80.10;;;;;;5042379;28;20029;-88
2021/09/25 11:53:01;;;;;;;8.23;6.75;;;14.80;80.00;;;;;;5007323;28;20040;-88
2021/09/25 11:55:29;;;;;;;10.80;8.02;;;14.70;80.10;;;;;;5043231;28;20522;-87
2021/09/25 11:58:05;;;;;;;8.93;7.68;;;14.80;79.90;;;;;;5028227;28;20040;-87
2021/09/25 12:00:35;;;;;;;10.55;6.95;;;14.70;79.70;;;;;;5047896;28;20037;-88
2021/09/25 12:03:04;;;;;;;14.00;7.45;;;14.70;79.90;;;;;;5046502;28;20041;-89
2021/09/25 12:05:35;;;;;;;9.50;7.70;;;14.60;80.00;;;;;;5049314;28;20113;-89
2021/09/25 12:08:05;;;;;;;11.30;7.72;;;14.60;80.00;;;;;;5047071;28;20039;-87
2021/09/25 12:10:45;;;;;;;9.98;7.35;;;14.60;80.10;;;;;;5044636;28;20510;-91
2021/09/25 12:13:24;;;;;;;9.65;7.00;;;14.50;80.10;;;;;;5037972;28;20515;-90
2021/09/25 12:16:08;;;;;;;11.57;7.10;;;14.50;80.10;;;;;;5055685;28;20514;-93
2021/09/25 12:18:42;;;;;;;8.73;6.70;;;14.50;80.40;;;;;;5053109;28;20100;-95
2021/09/25 12:21:14;;;;;;;10.07;6.80;;;14.40;80.30;;;;;;5036253;28;20055;-91
2021/09/25 12:23:57;;;;;;;11.10;7.13;;;14.50;80.40;;;;;;5034616;28;20061;-90
2021/09/25 12:26:42;;;;;;;15.52;7.40;;;14.40;80.30;;;;;;5057708;28;20095;-93
2021/09/25 12:29:19;;;;;;;9.82;6.72;;;14.50;80.30;;;;;;5057350;28;20091;-91
2021/09/25 12:32:03;;;;;;;8.88;6.78;;;14.50;80.30;;;;;;5066286;28;20055;-92
2021/09/25 12:34:29;;;;;;;9.40;6.22;;;14.50;80.10;;;;;;5073216;28;20120;-88
2021/09/25 12:36:59;;;;;;;8.77;6.20;;;14.50;79.90;;;;;;5050392;28;20021;-90
2021/09/25 12:39:35;;;;;;;8.43;6.30;;;14.50;80.00;;;;;;5066220;28;20084;-95
2021/09/25 12:42:22;;;;;;;12.48;6.75;;;14.50;80.00;;;;;;5036116;28;20039;-93
2021/09/25 12:44:52;;;;;;;9.15;6.47;;;14.60;80.00;;;;;;5042244;28;20060;-94
2021/09/25 12:47:50;;;;;;;7.88;6.32;;;14.60;80.10;;;;;;5046600;28;20065;-93